BAW21B EGLL-KLAX
Flight info
| Callsign | BAW21B |
|---|---|
| Flight time | N/A |
| Altitude | 32000 |
| Route | ULTIB T420 TNT UN57 POL UN601 RIBEL DCT ASLIB DCT BALIX/M084F320 DCT 64N020W/M084F340 67N030W 69N040W 69N050W 69N060W DCT BOPUT/N0481F340 DCT 68N070W/N0485F360 65N085W 61N095W DCT YYL DCT DURUR/N0489F380 DCT KATEN DCT BIL DCT MLF DCT WINEN/N0482F390 Q73 EEVUN/N0485F380 Q73 HAKMN ANJLL4 |
| Aircraft | B77W/H-SDE1E2E3FGHIJ2J3J4J5M1RWXY/LB1D1 |
Departure
| Time | 2026-05-04 06:58 |
|---|---|
| Airport | London Heathrow Airport (EGLL) |
Arrival
| Time | N/A |
|---|---|
| Airport | Los Angeles International Airport (KLAX) |
| Time | Latitude | Longitude | Altitude | Speed | Heading |
|---|---|---|---|---|---|
| 2026-05-04 06:30 | 51.47133 | -0.48019 | 91 ft | 0 kts | 270° |
| 2026-05-04 06:42 | 51.47133 | -0.48005 | 95 ft | 4 kts | 270° |
| 2026-05-04 06:42 | 51.47133 | -0.47962 | 92 ft | 4 kts | 270° |
| 2026-05-04 06:42 | 51.47133 | -0.47925 | 92 ft | 2 kts | 270° |
| 2026-05-04 06:44 | 51.47193 | -0.47871 | 91 ft | 0 kts | 180° |
| 2026-05-04 06:48 | 51.46908 | -0.47868 | 91 ft | 9 kts | 179° |
| 2026-05-04 06:48 | 51.46845 | -0.47868 | 91 ft | 9 kts | 180° |
| 2026-05-04 06:49 | 51.46782 | -0.47865 | 93 ft | 9 kts | 169° |
| 2026-05-04 06:50 | 51.46747 | -0.46915 | 94 ft | 17 kts | 90° |
| 2026-05-04 06:51 | 51.46747 | -0.46724 | 94 ft | 17 kts | 90° |
| 2026-05-04 06:51 | 51.46748 | -0.46531 | 94 ft | 17 kts | 90° |
| 2026-05-04 06:51 | 51.46747 | -0.46337 | 94 ft | 17 kts | 90° |
| 2026-05-04 06:51 | 51.46748 | -0.46144 | 94 ft | 17 kts | 89° |
| 2026-05-04 06:52 | 51.46748 | -0.45951 | 94 ft | 17 kts | 90° |
| 2026-05-04 06:52 | 51.46748 | -0.45757 | 94 ft | 17 kts | 90° |
| 2026-05-04 06:52 | 51.46749 | -0.45564 | 94 ft | 17 kts | 90° |
| 2026-05-04 06:52 | 51.46749 | -0.45371 | 94 ft | 17 kts | 90° |
| 2026-05-04 06:53 | 51.46750 | -0.45178 | 91 ft | 17 kts | 90° |
| 2026-05-04 06:53 | 51.46750 | -0.44984 | 91 ft | 17 kts | 90° |
| 2026-05-04 06:53 | 51.46751 | -0.44791 | 91 ft | 17 kts | 89° |
| 2026-05-04 06:53 | 51.46752 | -0.44598 | 91 ft | 17 kts | 89° |
| 2026-05-04 06:54 | 51.46754 | -0.44405 | 93 ft | 17 kts | 90° |
| 2026-05-04 06:54 | 51.46753 | -0.44211 | 92 ft | 17 kts | 89° |
| 2026-05-04 06:54 | 51.46765 | -0.44019 | 92 ft | 17 kts | 83° |
| 2026-05-04 06:54 | 51.46771 | -0.43826 | 94 ft | 17 kts | 89° |
| 2026-05-04 06:55 | 51.46771 | -0.43650 | 94 ft | 10 kts | 90° |
| 2026-05-04 06:55 | 51.46771 | -0.43542 | 94 ft | 9 kts | 92° |
| 2026-05-04 06:55 | 51.46740 | -0.43461 | 94 ft | 9 kts | 149° |
| 2026-05-04 06:55 | 51.46680 | -0.43439 | 95 ft | 9 kts | 178° |
| 2026-05-04 06:56 | 51.46617 | -0.43436 | 94 ft | 9 kts | 179° |
| 2026-05-04 06:57 | 51.46487 | -0.46598 | 100 ft | 191 kts | 270° |
| 2026-05-04 06:58 | 51.46472 | -0.48763 | 637 ft | 202 kts | 270° |
| 2026-05-04 06:58 | 51.46529 | -0.51048 | 1208 ft | 203 kts | 285° |
| 2026-05-04 06:58 | 51.47111 | -0.53165 | 1509 ft | 217 kts | 301° |
| 2026-05-04 06:58 | 51.47878 | -0.55374 | 1784 ft | 235 kts | 300° |
| 2026-05-04 06:59 | 51.48671 | -0.57718 | 2350 ft | 244 kts | 299° |
| 2026-05-04 06:59 | 51.49477 | -0.60175 | 2921 ft | 253 kts | 298° |
| 2026-05-04 06:59 | 51.50294 | -0.62708 | 3556 ft | 258 kts | 298° |
| 2026-05-04 06:59 | 51.51126 | -0.65281 | 4250 ft | 260 kts | 300° |
| 2026-05-04 07:01 | 51.63579 | -0.69011 | 6004 ft | 272 kts | 355° |
| 2026-05-04 07:01 | 51.65471 | -0.69230 | 6015 ft | 272 kts | 355° |
| 2026-05-04 07:02 | 51.67360 | -0.69451 | 6028 ft | 272 kts | 354° |
| 2026-05-04 07:02 | 51.69237 | -0.69864 | 6386 ft | 274 kts | 349° |
| 2026-05-04 07:02 | 51.71130 | -0.70390 | 7007 ft | 278 kts | 349° |
| 2026-05-04 07:02 | 51.73051 | -0.70936 | 7620 ft | 282 kts | 349° |
| 2026-05-04 07:03 | 51.74992 | -0.71486 | 8268 ft | 285 kts | 349° |
| 2026-05-04 07:03 | 51.76953 | -0.72036 | 8931 ft | 288 kts | 349° |
| 2026-05-04 07:03 | 51.78939 | -0.72588 | 9538 ft | 292 kts | 349° |
| 2026-05-04 07:03 | 51.80958 | -0.73147 | 10131 ft | 296 kts | 349° |
| 2026-05-04 07:04 | 51.83030 | -0.73719 | 10460 ft | 312 kts | 349° |
| 2026-05-04 07:04 | 51.85241 | -0.74324 | 10630 ft | 333 kts | 349° |
| 2026-05-04 07:04 | 51.87593 | -0.74972 | 10795 ft | 354 kts | 349° |
| 2026-05-04 07:04 | 51.90090 | -0.75662 | 11062 ft | 372 kts | 349° |
| 2026-05-04 07:05 | 51.92674 | -0.76371 | 11624 ft | 381 kts | 349° |
| 2026-05-04 07:05 | 51.95313 | -0.77092 | 12297 ft | 387 kts | 349° |
| 2026-05-04 07:05 | 51.97987 | -0.77823 | 13084 ft | 391 kts | 349° |
| 2026-05-04 07:05 | 52.00686 | -0.78563 | 13888 ft | 395 kts | 349° |
| 2026-05-04 07:06 | 52.06163 | -0.80071 | 15342 ft | 402 kts | 349° |
| 2026-05-04 07:06 | 52.08936 | -0.80833 | 16071 ft | 406 kts | 349° |
| 2026-05-04 07:06 | 52.11738 | -0.81608 | 16735 ft | 411 kts | 348° |
| 2026-05-04 07:07 | 52.14570 | -0.82392 | 17402 ft | 416 kts | 348° |
| 2026-05-04 07:08 | 52.33745 | -0.94092 | 21649 ft | 434 kts | 325° |
| 2026-05-04 07:09 | 52.36328 | -0.96712 | 22205 ft | 439 kts | 325° |
| 2026-05-04 07:09 | 52.38939 | -0.99340 | 22767 ft | 442 kts | 326° |
| 2026-05-04 07:09 | 52.41578 | -1.01981 | 23320 ft | 446 kts | 326° |
| 2026-05-04 07:09 | 52.44243 | -1.04641 | 23796 ft | 449 kts | 326° |
| 2026-05-04 07:10 | 52.46922 | -1.07317 | 24263 ft | 452 kts | 326° |
| 2026-05-04 07:10 | 52.49617 | -1.10018 | 24723 ft | 455 kts | 326° |
| 2026-05-04 07:12 | 52.68867 | -1.29543 | 27637 ft | 474 kts | 327° |
| 2026-05-04 07:12 | 52.71650 | -1.32375 | 28026 ft | 476 kts | 327° |
| 2026-05-04 07:12 | 52.74478 | -1.35252 | 28487 ft | 479 kts | 327° |
| 2026-05-04 07:12 | 52.77323 | -1.38152 | 28846 ft | 481 kts | 328° |
| 2026-05-04 07:13 | 52.80165 | -1.41051 | 29298 ft | 481 kts | 328° |
| 2026-05-04 07:13 | 52.83014 | -1.43963 | 29644 ft | 482 kts | 328° |
| 2026-05-04 07:13 | 52.85874 | -1.46889 | 29942 ft | 484 kts | 328° |
| 2026-05-04 07:14 | 52.97304 | -1.58631 | 31336 ft | 482 kts | 329° |
| 2026-05-04 07:14 | 53.00147 | -1.61568 | 31604 ft | 482 kts | 329° |
| 2026-05-04 07:15 | 53.03000 | -1.64512 | 31981 ft | 480 kts | 330° |
| 2026-05-04 07:15 | 53.05924 | -1.67234 | 31997 ft | 484 kts | 335° |
| 2026-05-04 07:15 | 53.12146 | -1.71339 | 32021 ft | 478 kts | 341° |
| 2026-05-04 07:16 | 53.18341 | -1.75065 | 32035 ft | 475 kts | 341° |
| 2026-05-04 07:16 | 53.24554 | -1.78869 | 32025 ft | 475 kts | 341° |
| 2026-05-04 07:17 | 53.30745 | -1.82722 | 32026 ft | 474 kts | 341° |
| 2026-05-04 07:17 | 53.36915 | -1.86591 | 32034 ft | 473 kts | 341° |
| 2026-05-04 07:18 | 53.43068 | -1.90453 | 32036 ft | 472 kts | 341° |
| 2026-05-04 07:18 | 53.49219 | -1.94323 | 32038 ft | 472 kts | 341° |
| 2026-05-04 07:19 | 53.55366 | -1.98203 | 32039 ft | 471 kts | 341° |
| 2026-05-04 07:19 | 53.61511 | -2.02094 | 32039 ft | 472 kts | 341° |
| 2026-05-04 07:20 | 53.67662 | -2.06003 | 32041 ft | 472 kts | 341° |
| 2026-05-04 07:20 | 53.73778 | -2.09902 | 32036 ft | 472 kts | 342° |
| 2026-05-04 07:22 | 53.97888 | -2.26441 | 32032 ft | 464 kts | 341° |
| 2026-05-04 07:23 | 54.03791 | -2.30897 | 32041 ft | 466 kts | 335° |
| 2026-05-04 07:23 | 54.08516 | -2.35345 | 32044 ft | 467 kts | 334° |
| 2026-05-04 07:24 | 54.15130 | -2.41639 | 32034 ft | 467 kts | 334° |
| 2026-05-04 07:24 | 54.20808 | -2.47012 | 32044 ft | 467 kts | 334° |
| 2026-05-04 07:26 | 54.42570 | -2.67651 | 32043 ft | 466 kts | 335° |
| 2026-05-04 07:27 | 54.48193 | -2.73026 | 32045 ft | 465 kts | 335° |
| 2026-05-04 07:27 | 54.53833 | -2.78435 | 32040 ft | 463 kts | 335° |
| 2026-05-04 07:28 | 54.59453 | -2.83842 | 32046 ft | 462 kts | 335° |
| 2026-05-04 07:28 | 54.65060 | -2.89253 | 32042 ft | 461 kts | 335° |
| 2026-05-04 07:29 | 54.70646 | -2.94662 | 32044 ft | 460 kts | 335° |
| 2026-05-04 07:29 | 54.76228 | -3.00080 | 32049 ft | 459 kts | 334° |
| 2026-05-04 07:30 | 54.81767 | -3.05578 | 32037 ft | 460 kts | 331° |
| 2026-05-04 07:30 | 54.86875 | -3.12317 | 32054 ft | 462 kts | 324° |
| 2026-05-04 07:31 | 54.91816 | -3.19470 | 32045 ft | 462 kts | 324° |
| 2026-05-04 07:33 | 55.11563 | -3.48002 | 32045 ft | 462 kts | 323° |
| 2026-05-04 07:33 | 55.16507 | -3.55186 | 32043 ft | 462 kts | 323° |
| 2026-05-04 07:34 | 55.21447 | -3.62388 | 32043 ft | 462 kts | 323° |
| 2026-05-04 07:34 | 55.26376 | -3.69596 | 32042 ft | 461 kts | 323° |
| 2026-05-04 07:35 | 55.31279 | -3.76804 | 32040 ft | 459 kts | 323° |
| 2026-05-04 07:35 | 55.36168 | -3.84004 | 32041 ft | 458 kts | 323° |
| 2026-05-04 07:36 | 55.41044 | -3.91207 | 32030 ft | 457 kts | 323° |
| 2026-05-04 07:38 | 55.60446 | -4.20117 | 32046 ft | 456 kts | 322° |
| 2026-05-04 07:38 | 55.65280 | -4.27380 | 32046 ft | 456 kts | 322° |
| 2026-05-04 07:39 | 55.70110 | -4.34663 | 32048 ft | 456 kts | 322° |
| 2026-05-04 07:39 | 55.74941 | -4.41971 | 32056 ft | 456 kts | 322° |
| 2026-05-04 07:40 | 55.79758 | -4.49283 | 32045 ft | 455 kts | 321° |
| 2026-05-04 07:40 | 55.84562 | -4.56601 | 32042 ft | 454 kts | 321° |
| 2026-05-04 07:41 | 55.89353 | -4.63922 | 32044 ft | 454 kts | 321° |
| 2026-05-04 07:41 | 55.94102 | -4.71205 | 32047 ft | 453 kts | 321° |
| 2026-05-04 07:42 | 55.98913 | -4.78606 | 32045 ft | 453 kts | 321° |
| 2026-05-04 07:42 | 56.03683 | -4.85970 | 32049 ft | 453 kts | 321° |
| 2026-05-04 07:43 | 56.08422 | -4.93310 | 32048 ft | 453 kts | 321° |
| 2026-05-04 07:43 | 56.13186 | -5.00715 | 32049 ft | 453 kts | 321° |
| 2026-05-04 07:44 | 56.17943 | -5.08134 | 32059 ft | 453 kts | 321° |
| 2026-05-04 07:44 | 56.22698 | -5.15578 | 32053 ft | 454 kts | 320° |
| 2026-05-04 07:45 | 56.27451 | -5.23045 | 32062 ft | 453 kts | 320° |
| 2026-05-04 07:45 | 56.32198 | -5.30522 | 32056 ft | 453 kts | 320° |
| 2026-05-04 07:46 | 56.36938 | -5.38015 | 32060 ft | 453 kts | 320° |
| 2026-05-04 07:46 | 56.41672 | -5.45525 | 32056 ft | 453 kts | 320° |
| 2026-05-04 07:47 | 56.46403 | -5.53055 | 32072 ft | 453 kts | 320° |
| 2026-05-04 07:49 | 56.65099 | -5.83080 | 32045 ft | 447 kts | 319° |
| 2026-05-04 07:49 | 56.69750 | -5.90613 | 32055 ft | 448 kts | 319° |
| 2026-05-04 07:50 | 56.74402 | -5.98175 | 32065 ft | 449 kts | 318° |
| 2026-05-04 07:50 | 56.79061 | -6.05774 | 32054 ft | 449 kts | 318° |
| 2026-05-04 07:51 | 56.83711 | -6.13395 | 32055 ft | 449 kts | 318° |
| 2026-05-04 07:51 | 56.88358 | -6.21023 | 32053 ft | 449 kts | 318° |
| 2026-05-04 07:52 | 56.92994 | -6.28657 | 32055 ft | 448 kts | 318° |
| 2026-05-04 07:52 | 56.97621 | -6.36306 | 32071 ft | 448 kts | 317° |
| 2026-05-04 07:54 | 57.16004 | -6.66978 | 32046 ft | 445 kts | 317° |
| 2026-05-04 07:55 | 57.20581 | -6.74678 | 32076 ft | 445 kts | 317° |
| 2026-05-04 07:55 | 57.25149 | -6.82392 | 32049 ft | 444 kts | 317° |
| 2026-05-04 07:56 | 57.29697 | -6.90100 | 32038 ft | 443 kts | 316° |
| 2026-05-04 07:56 | 57.34226 | -6.97803 | 32033 ft | 442 kts | 316° |
| 2026-05-04 07:57 | 57.38748 | -7.05522 | 32028 ft | 441 kts | 316° |
| 2026-05-04 07:57 | 57.43227 | -7.13194 | 32024 ft | 441 kts | 316° |
| 2026-05-04 07:58 | 57.47736 | -7.20943 | 32010 ft | 441 kts | 316° |
| 2026-05-04 07:58 | 57.52233 | -7.28699 | 32022 ft | 441 kts | 316° |
| 2026-05-04 07:59 | 57.56727 | -7.36479 | 32022 ft | 441 kts | 316° |
| 2026-05-04 07:59 | 57.61218 | -7.44279 | 32021 ft | 441 kts | 316° |
| 2026-05-04 08:00 | 57.65704 | -7.52099 | 32028 ft | 441 kts | 316° |
| 2026-05-04 08:02 | 57.83561 | -7.83505 | 32021 ft | 438 kts | 315° |
| 2026-05-04 08:02 | 57.87988 | -7.91361 | 32021 ft | 437 kts | 315° |
| 2026-05-04 08:03 | 57.92407 | -7.99231 | 32006 ft | 438 kts | 315° |
| 2026-05-04 08:03 | 57.96823 | -8.07122 | 32028 ft | 439 kts | 314° |
| 2026-05-04 08:04 | 58.01243 | -8.15051 | 32012 ft | 438 kts | 314° |
| 2026-05-04 08:04 | 58.05620 | -8.22929 | 32006 ft | 438 kts | 314° |
| 2026-05-04 08:05 | 58.10021 | -8.30878 | 32001 ft | 438 kts | 314° |
| 2026-05-04 08:05 | 58.14386 | -8.38793 | 32002 ft | 437 kts | 314° |
| 2026-05-04 08:06 | 58.18771 | -8.46770 | 32004 ft | 437 kts | 314° |
| 2026-05-04 08:06 | 58.23115 | -8.54702 | 31994 ft | 437 kts | 314° |